Time;durP1;ratioP1;P1;durP2;ratioP2;P2;SDS_P1;SDS_P2;PMS_P1;PMS_P2;Temp;Humidity;BMP_temperature;BMP_pressure;BME280_temperature;BME280_humidity;BME280_pressure;Samples;Min_cycle;Max_cycle;Signal;HPM_P1;HPM_P2
2022/08/24 00:02:13;;;;;;;29.80;28.40;;;20.10;69.30;;;;;;5006604;28;20568;-68
2022/08/24 00:04:40;;;;;;;28.77;27.47;;;20.00;69.40;;;;;;5009738;28;20449;-68
2022/08/24 00:07:07;;;;;;;30.97;29.10;;;20.00;69.60;;;;;;5002039;28;20924;-68
2022/08/24 00:09:35;;;;;;;32.80;31.00;;;20.00;69.50;;;;;;5003127;28;20483;-68
2022/08/24 00:12:04;;;;;;;31.10;29.30;;;20.00;69.40;;;;;;4999095;28;21042;-67
2022/08/24 00:14:31;;;;;;;32.13;30.33;;;20.00;69.50;;;;;;5004851;28;20919;-69
2022/08/24 00:17:00;;;;;;;31.37;29.60;;;19.90;69.70;;;;;;5002438;28;20592;-69
2022/08/24 00:19:29;;;;;;;30.27;28.67;;;19.80;70.00;;;;;;5003813;28;20577;-69
2022/08/24 00:21:56;;;;;;;30.20;28.50;;;19.80;70.00;;;;;;5001930;28;20566;-68
2022/08/24 00:24:23;;;;;;;30.03;28.70;;;19.80;70.20;;;;;;5002049;28;20517;-68
2022/08/24 00:26:50;;;;;;;31.20;29.50;;;19.70;70.30;;;;;;5004383;28;20456;-68
2022/08/24 00:29:18;;;;;;;30.63;29.20;;;19.70;70.30;;;;;;5000911;28;20535;-68
2022/08/24 00:31:45;;;;;;;29.90;28.40;;;19.70;70.20;;;;;;4999127;28;20563;-68
2022/08/24 00:34:17;;;;;;;30.77;29.10;;;19.70;70.20;;;;;;5002884;28;20478;-69
2022/08/24 00:36:45;;;;;;;30.07;28.57;;;19.70;70.20;;;;;;5006304;28;20451;-68
2022/08/24 00:39:15;;;;;;;30.30;28.80;;;19.70;70.20;;;;;;5002381;28;20494;-69
2022/08/24 00:41:44;;;;;;;30.40;28.90;;;19.70;70.20;;;;;;5001218;28;20527;-68
2022/08/24 00:44:12;;;;;;;32.10;30.50;;;19.60;70.30;;;;;;5002869;28;20571;-68
2022/08/24 00:46:44;;;;;;;30.07;28.67;;;19.60;70.50;;;;;;5004926;28;20482;-68
2022/08/24 00:49:21;;;;;;;32.23;30.33;;;19.50;70.60;;;;;;4999544;28;20483;-69
2022/08/24 00:51:56;;;;;;;32.37;30.87;;;19.50;70.80;;;;;;5003093;28;20475;-69
2022/08/24 00:54:25;;;;;;;31.70;30.10;;;19.50;70.90;;;;;;5005590;28;20467;-66
2022/08/24 00:56:57;;;;;;;33.43;31.30;;;19.40;71.00;;;;;;5006822;28;20498;-66
2022/08/24 00:59:29;;;;;;;32.57;31.07;;;19.40;71.00;;;;;;5003974;28;20578;-66
2022/08/24 01:01:58;;;;;;;32.17;30.47;;;19.40;71.10;;;;;;5003353;28;20983;-66
2022/08/24 01:04:38;;;;;;;32.30;30.70;;;19.30;71.20;;;;;;5001082;28;20482;-70
2022/08/24 01:07:06;;;;;;;31.90;30.30;;;19.30;71.30;;;;;;5002946;28;21035;-68
2022/08/24 01:09:33;;;;;;;31.17;29.67;;;19.30;71.50;;;;;;5010557;28;20460;-68
2022/08/24 01:12:01;;;;;;;33.03;31.17;;;19.20;71.60;;;;;;5002055;28;20491;-68
2022/08/24 01:14:28;;;;;;;31.90;30.50;;;19.20;72.00;;;;;;5008045;28;20465;-68
2022/08/24 01:19:43;;;;;;;31.73;30.23;;;19.00;72.30;;;;;;5003153;28;20442;-68
2022/08/24 01:22:26;;;;;;;35.10;32.93;;;19.00;72.40;;;;;;4995810;28;20551;-68
2022/08/24 01:24:54;;;;;;;35.43;33.73;;;19.00;72.60;;;;;;5000779;28;20453;-68
2022/08/24 01:27:22;;;;;;;35.80;34.00;;;19.00;72.60;;;;;;5002977;28;20455;-68
2022/08/24 01:29:49;;;;;;;32.93;31.20;;;18.90;72.70;;;;;;5001092;28;20471;-69
2022/08/24 01:32:18;;;;;;;34.80;33.00;;;18.90;72.70;;;;;;5001779;28;20501;-66
2022/08/24 01:34:45;;;;;;;35.43;33.83;;;18.90;73.10;;;;;;5002287;28;20462;-66
2022/08/24 01:37:12;;;;;;;36.20;34.50;;;18.80;73.10;;;;;;4999832;28;20461;-66
2022/08/24 01:39:41;;;;;;;35.23;33.53;;;18.80;73.20;;;;;;5005678;28;20953;-66
2022/08/24 01:42:10;;;;;;;33.13;31.63;;;18.70;73.20;;;;;;5000090;28;20497;-66
2022/08/24 01:44:39;;;;;;;33.30;31.70;;;18.60;73.80;;;;;;5006256;28;20505;-66
2022/08/24 01:47:08;;;;;;;34.60;32.80;;;18.60;73.90;;;;;;5004912;28;20955;-66
2022/08/24 01:49:39;;;;;;;32.93;31.33;;;18.50;74.10;;;;;;5007848;28;20474;-66
2022/08/24 01:52:07;;;;;;;32.93;31.43;;;18.50;74.20;;;;;;5006070;28;20491;-66
2022/08/24 01:54:34;;;;;;;33.73;32.13;;;18.40;74.40;;;;;;5007757;28;20552;-66
2022/08/24 01:57:02;;;;;;;32.90;31.40;;;18.50;74.40;;;;;;5006493;28;20560;-66
2022/08/24 01:59:30;;;;;;;32.10;30.50;;;18.50;74.40;;;;;;5006811;28;20458;-65
2022/08/24 02:02:02;;;;;;;31.47;30.07;;;18.50;74.30;;;;;;5006124;28;21061;-66
2022/08/24 02:04:29;;;;;;;32.83;31.13;;;18.40;74.30;;;;;;5004165;28;20823;-66
2022/08/24 02:06:56;;;;;;;35.10;33.30;;;18.40;74.40;;;;;;5005295;28;20544;-66
2022/08/24 02:09:23;;;;;;;34.20;32.60;;;18.30;74.50;;;;;;5002520;28;20479;-66
2022/08/24 02:11:50;;;;;;;34.40;32.60;;;18.30;74.70;;;;;;5001088;28;20492;-66
2022/08/24 02:14:18;;;;;;;32.97;31.23;;;18.20;74.70;;;;;;5005820;28;20900;-66
2022/08/24 02:16:46;;;;;;;32.40;30.80;;;18.20;74.90;;;;;;5005982;28;20458;-66
2022/08/24 02:19:13;;;;;;;32.00;30.50;;;18.20;75.10;;;;;;5003686;28;20532;-66
2022/08/24 02:21:41;;;;;;;33.77;31.97;;;18.10;75.20;;;;;;5003602;28;20481;-68
2022/08/24 02:24:08;;;;;;;34.77;33.17;;;18.10;75.20;;;;;;5007382;28;20458;-68
2022/08/24 02:26:35;;;;;;;33.63;31.93;;;18.10;75.20;;;;;;5001236;28;20467;-68
2022/08/24 02:29:02;;;;;;;33.30;31.50;;;18.10;75.40;;;;;;5003025;28;20469;-68
2022/08/24 02:31:29;;;;;;;33.80;31.90;;;18.00;75.90;;;;;;5004514;28;21104;-68
2022/08/24 02:33:57;;;;;;;34.80;33.10;;;18.00;75.90;;;;;;5003948;28;20962;-68
2022/08/24 02:36:24;;;;;;;36.40;34.73;;;18.00;75.90;;;;;;5001349;28;21035;-68
2022/08/24 02:38:52;;;;;;;47.33;45.03;;;17.90;75.90;;;;;;5007565;28;20543;-68
2022/08/24 02:41:19;;;;;;;31.60;30.10;;;17.90;76.00;;;;;;5001754;28;20488;-68
2022/08/24 02:43:46;;;;;;;39.77;37.80;;;17.90;75.90;;;;;;5006039;28;20467;-69
2022/08/24 02:46:18;;;;;;;32.90;31.30;;;17.90;75.90;;;;;;5007193;28;20458;-68
2022/08/24 02:48:45;;;;;;;33.10;31.50;;;17.90;75.90;;;;;;5004217;28;20508;-68
2022/08/24 02:51:21;;;;;;;34.40;32.30;;;17.90;76.20;;;;;;5002760;28;20495;-68
2022/08/24 02:53:48;;;;;;;45.00;42.90;;;17.90;76.00;;;;;;5003350;28;20567;-68
2022/08/24 02:56:16;;;;;;;56.03;53.23;;;17.90;76.00;;;;;;5005426;28;20915;-68
2022/08/24 02:58:43;;;;;;;35.23;33.53;;;17.90;76.10;;;;;;4998689;28;20476;-68
2022/08/24 03:01:10;;;;;;;33.87;32.17;;;17.90;76.10;;;;;;4998422;28;20481;-66
2022/08/24 03:03:37;;;;;;;30.20;28.70;;;17.80;76.30;;;;;;5005805;28;20540;-66
2022/08/24 03:06:05;;;;;;;34.13;32.53;;;17.60;76.90;;;;;;5005223;28;20547;-66
2022/08/24 03:08:33;;;;;;;47.47;45.27;;;17.50;77.40;;;;;;5003984;28;20508;-66
2022/08/24 03:11:01;;;;;;;66.27;63.03;;;17.40;77.60;;;;;;5001820;28;20477;-66
2022/08/24 03:13:29;;;;;;;42.20;39.90;;;17.40;77.80;;;;;;5001753;28;20524;-66
2022/08/24 03:15:56;;;;;;;32.20;30.50;;;17.40;77.90;;;;;;5004799;28;20978;-66
2022/08/24 03:18:25;;;;;;;33.30;31.70;;;17.40;77.70;;;;;;5005028;28;20555;-66
2022/08/24 03:20:52;;;;;;;40.20;37.90;;;17.50;77.50;;;;;;5003284;28;20558;-66
2022/08/24 03:23:19;;;;;;;37.80;35.60;;;17.50;77.50;;;;;;5002566;28;20551;-66
2022/08/24 03:25:47;;;;;;;57.53;54.87;;;17.50;77.50;;;;;;5007005;28;20543;-66
2022/08/24 03:28:15;;;;;;;41.57;39.63;;;17.50;77.40;;;;;;5001537;28;21009;-66
2022/08/24 03:30:42;;;;;;;41.37;39.37;;;17.50;77.30;;;;;;5004900;28;20510;-66
2022/08/24 03:33:10;;;;;;;39.97;38.03;;;17.50;77.40;;;;;;5001395;28;20543;-66
2022/08/24 03:35:37;;;;;;;35.40;33.60;;;17.50;77.40;;;;;;5007296;28;20555;-65
2022/08/24 03:38:05;;;;;;;41.20;39.00;;;17.50;77.40;;;;;;5002147;28;20942;-66
2022/08/24 03:40:33;;;;;;;54.00;51.30;;;17.50;77.50;;;;;;5003157;28;20545;-66
2022/08/24 03:43:02;;;;;;;37.07;35.10;;;17.40;77.70;;;;;;4999580;28;21056;-66
2022/08/24 03:45:29;;;;;;;41.60;39.60;;;17.50;77.60;;;;;;5007787;28;20607;-66
2022/08/24 03:47:56;;;;;;;41.73;39.77;;;17.40;77.60;;;;;;4999556;28;20465;-66
2022/08/24 03:50:24;;;;;;;30.20;28.70;;;17.50;77.50;;;;;;5003463;28;20873;-66
2022/08/24 03:52:52;;;;;;;37.53;35.83;;;17.50;77.40;;;;;;5002233;28;20543;-66
2022/08/24 03:55:20;;;;;;;59.57;56.77;;;17.40;77.50;;;;;;5006948;28;21037;-66
2022/08/24 03:57:47;;;;;;;47.77;45.23;;;17.40;77.50;;;;;;4997990;28;20774;-66
2022/08/24 04:00:16;;;;;;;51.63;48.77;;;17.40;77.60;;;;;;5002150;28;20540;-66
2022/08/24 04:02:44;;;;;;;41.97;39.73;;;17.40;77.90;;;;;;5002623;28;20542;-66
2022/08/24 04:05:12;;;;;;;59.50;56.63;;;17.40;77.80;;;;;;5006669;28;20479;-66
2022/08/24 04:07:39;;;;;;;33.40;31.70;;;17.40;77.70;;;;;;5000985;28;20471;-66
2022/08/24 04:10:07;;;;;;;58.80;55.93;;;17.40;77.70;;;;;;5009012;28;20917;-66
2022/08/24 04:12:34;;;;;;;35.20;33.40;;;17.40;77.60;;;;;;5003994;28;20603;-66
2022/08/24 04:15:01;;;;;;;44.87;42.57;;;17.50;77.60;;;;;;5010458;28;20547;-67
2022/08/24 04:17:29;;;;;;;39.07;36.83;;;17.50;77.60;;;;;;5001245;28;20522;-66
2022/08/24 04:20:02;;;;;;;36.93;35.17;;;17.40;77.80;;;;;;5007076;28;20498;-66
2022/08/24 04:22:32;;;;;;;37.97;35.97;;;17.40;77.90;;;;;;5004223;28;20493;-69
2022/08/24 04:25:00;;;;;;;45.87;43.57;;;17.50;77.60;;;;;;5006469;28;20467;-66
2022/08/24 04:27:26;;;;;;;37.55;35.60;;;17.50;77.60;;;;;;5004493;28;20491;-66
2022/08/24 04:29:53;;;;;;;38.70;36.83;;;17.70;77.10;;;;;;5006361;28;20217;-66
2022/08/24 04:32:20;;;;;;;43.00;40.80;;;17.70;76.80;;;;;;5003968;28;20485;-66
2022/08/24 04:34:49;;;;;;;40.50;38.43;;;17.70;76.90;;;;;;5011097;28;20591;-66
2022/08/24 04:37:16;;;;;;;61.80;58.60;;;17.80;76.90;;;;;;5006888;28;20552;-66
2022/08/24 04:39:43;;;;;;;37.60;35.90;;;17.80;76.90;;;;;;5003746;28;20492;-66
2022/08/24 04:42:11;;;;;;;47.97;45.53;;;17.80;76.90;;;;;;5001248;28;20517;-67
2022/08/24 04:44:38;;;;;;;56.27;53.37;;;17.80;76.80;;;;;;5007853;28;20460;-67
2022/08/24 04:47:06;;;;;;;39.83;37.97;;;17.90;76.60;;;;;;5007076;28;20467;-66
2022/08/24 04:49:33;;;;;;;39.07;37.27;;;17.90;76.40;;;;;;5007079;28;20485;-68
2022/08/24 04:52:01;;;;;;;38.83;36.97;;;17.90;76.50;;;;;;5005086;28;20555;-67
2022/08/24 04:54:28;;;;;;;44.80;42.53;;;18.00;76.30;;;;;;5008067;28;20532;-66
2022/08/24 04:56:55;;;;;;;45.50;43.03;;;18.10;76.10;;;;;;5001779;28;20481;-66
2022/08/24 04:59:22;;;;;;;48.27;45.87;;;18.10;75.90;;;;;;5005964;28;20552;-66
2022/08/24 05:01:50;;;;;;;36.87;35.17;;;18.20;75.80;;;;;;4999345;28;20496;-67
2022/08/24 05:04:18;;;;;;;48.03;45.53;;;18.20;75.70;;;;;;5008168;28;20967;-66
2022/08/24 05:06:45;;;;;;;50.90;48.50;;;18.30;75.40;;;;;;5006458;28;20558;-66
2022/08/24 05:09:13;;;;;;;39.27;37.30;;;18.40;75.20;;;;;;5008847;28;20562;-65
2022/08/24 05:11:40;;;;;;;41.77;39.70;;;18.50;74.90;;;;;;5006130;28;20541;-66
2022/08/24 05:14:07;;;;;;;42.73;40.73;;;18.60;74.80;;;;;;5009390;28;21040;-66
2022/08/24 05:16:36;;;;;;;43.27;41.27;;;18.70;74.60;;;;;;5004896;28;20553;-66
2022/08/24 05:19:05;;;;;;;60.17;57.07;;;18.70;74.30;;;;;;5002843;28;20550;-67
2022/08/24 05:21:33;;;;;;;38.17;36.07;;;18.80;74.00;;;;;;5002006;28;20478;-68
2022/08/24 05:23:59;;;;;;;58.97;56.07;;;19.00;73.70;;;;;;5003435;28;20555;-67
2022/08/24 05:26:29;;;;;;;36.80;34.90;;;19.00;73.50;;;;;;5001932;28;20464;-66
2022/08/24 05:28:58;;;;;;;39.73;37.77;;;19.20;73.30;;;;;;5001405;28;20484;-68
2022/08/24 05:31:27;;;;;;;46.80;44.47;;;19.30;72.80;;;;;;5003092;28;20565;-66
2022/08/24 05:33:54;;;;;;;54.73;51.93;;;19.40;72.60;;;;;;5003664;28;20459;-66
2022/08/24 05:36:24;;;;;;;43.67;41.47;;;19.50;72.30;;;;;;5006713;28;20491;-66
2022/08/24 05:38:53;;;;;;;38.73;36.97;;;19.60;72.10;;;;;;5005826;28;20532;-67
2022/08/24 05:41:20;;;;;;;46.63;44.13;;;19.70;71.70;;;;;;5006664;28;20480;-67
2022/08/24 05:43:49;;;;;;;46.43;44.23;;;19.80;71.40;;;;;;5009857;28;20659;-72
2022/08/24 05:46:16;;;;;;;39.10;37.20;;;19.80;71.20;;;;;;5007310;28;20544;-67
2022/08/24 05:48:46;;;;;;;42.90;40.70;;;19.90;71.00;;;;;;5009095;28;20457;-68
2022/08/24 05:51:14;;;;;;;38.00;35.70;;;20.00;70.60;;;;;;5006688;28;20495;-70
2022/08/24 05:53:41;;;;;;;36.73;34.40;;;20.10;70.20;;;;;;5007030;28;20548;-67
2022/08/24 05:56:10;;;;;;;36.50;34.60;;;20.30;69.60;;;;;;5000613;28;20462;-68
2022/08/24 05:58:39;;;;;;;40.55;38.55;;;20.50;69.10;;;;;;5004325;28;20460;-68
2022/08/24 06:01:09;;;;;;;52.40;49.70;;;20.70;68.40;;;;;;5009034;28;20218;-68
2022/08/24 06:03:36;;;;;;;50.53;48.13;;;20.70;68.30;;;;;;5004277;28;20480;-68
2022/08/24 06:06:05;;;;;;;59.60;56.60;;;20.70;68.30;;;;;;5003280;28;20959;-67
2022/08/24 06:08:32;;;;;;;40.90;38.80;;;20.70;68.30;;;;;;5007751;28;20457;-70
2022/08/24 06:11:00;;;;;;;55.80;53.00;;;20.80;68.30;;;;;;5005999;28;20493;-69
2022/08/24 06:13:28;;;;;;;53.30;50.40;;;20.90;68.00;;;;;;4999785;28;20863;-69
2022/08/24 06:16:03;;;;;;;39.37;37.37;;;21.10;67.60;;;;;;5006064;28;20457;-69
2022/08/24 06:18:32;;;;;;;42.23;40.03;;;21.20;67.10;;;;;;5003438;28;20452;-70
2022/08/24 06:20:59;;;;;;;40.87;38.97;;;21.30;66.90;;;;;;5006935;28;20485;-68
2022/08/24 06:23:26;;;;;;;43.43;41.23;;;21.40;66.50;;;;;;5007379;28;20582;-68
2022/08/24 06:28:37;;;;;;;48.70;46.33;;;21.60;65.80;;;;;;5004364;28;20463;-69
2022/08/24 06:31:07;;;;;;;39.60;37.60;;;21.60;65.60;;;;;;5003981;28;20483;-67
2022/08/24 06:33:38;;;;;;;53.77;51.07;;;21.80;65.30;;;;;;5008053;28;20468;-68
2022/08/24 06:36:05;;;;;;;36.80;34.90;;;22.00;65.00;;;;;;5006408;28;20568;-67
2022/08/24 06:38:32;;;;;;;52.83;50.23;;;22.10;64.60;;;;;;5000652;28;21042;-68
2022/08/24 06:40:59;;;;;;;41.13;39.07;;;22.20;64.30;;;;;;5006271;28;20473;-68
2022/08/24 06:43:26;;;;;;;41.50;39.27;;;22.40;63.70;;;;;;5003228;28;20548;-68
2022/08/24 06:45:55;;;;;;;50.97;48.43;;;22.60;63.00;;;;;;4997489;28;20496;-67
2022/08/24 06:48:22;;;;;;;40.03;38.13;;;22.60;62.60;;;;;;4999280;28;20540;-67
2022/08/24 06:50:51;;;;;;;43.30;41.10;;;22.60;62.40;;;;;;4999892;28;20569;-66
2022/08/24 06:53:18;;;;;;;50.83;48.17;;;22.70;62.30;;;;;;5002563;28;20462;-67
2022/08/24 06:55:46;;;;;;;40.57;38.70;;;22.70;62.10;;;;;;5007336;28;20453;-67
2022/08/24 06:58:13;;;;;;;47.83;45.57;;;22.80;61.70;;;;;;5002546;28;20474;-67
2022/08/24 07:00:40;;;;;;;52.97;49.90;;;22.90;61.50;;;;;;5006711;28;20917;-67
2022/08/24 07:03:07;;;;;;;49.93;47.43;;;22.90;61.60;;;;;;5005087;28;20452;-67
2022/08/24 07:05:34;;;;;;;58.00;55.10;;;23.00;61.20;;;;;;5013804;28;20460;-67
2022/08/24 07:08:04;;;;;;;49.30;46.80;;;23.00;61.10;;;;;;5006559;28;20454;-67
2022/08/24 07:10:32;;;;;;;52.20;49.23;;;23.20;60.90;;;;;;5006476;28;20588;-66
2022/08/24 07:12:59;;;;;;;42.67;40.53;;;23.30;60.30;;;;;;5003552;28;20564;-66
2022/08/24 07:15:26;;;;;;;50.20;47.67;;;23.20;60.60;;;;;;5002875;28;20464;-66
2022/08/24 07:17:53;;;;;;;35.30;33.60;;;23.40;59.90;;;;;;5003389;28;20467;-66
2022/08/24 07:20:20;;;;;;;43.97;41.60;;;23.50;59.80;;;;;;5008445;28;20453;-66
2022/08/24 07:22:47;;;;;;;53.93;50.90;;;23.50;59.50;;;;;;5003694;28;20545;-66
2022/08/24 07:25:16;;;;;;;44.43;42.43;;;23.40;60.20;;;;;;5009484;28;20542;-68
2022/08/24 07:27:43;;;;;;;39.47;37.57;;;23.50;60.60;;;;;;5002679;28;20792;-66
2022/08/24 07:30:10;;;;;;;54.47;51.77;;;23.60;60.60;;;;;;5004152;28;20484;-67
2022/08/24 07:32:37;;;;;;;54.33;51.50;;;23.80;60.30;;;;;;5005602;28;20571;-69
2022/08/24 07:35:05;;;;;;;54.43;51.40;;;23.80;60.60;;;;;;5006812;28;20467;-70
2022/08/24 07:37:32;;;;;;;40.90;38.70;;;23.70;60.90;;;;;;4995027;28;20915;-69
2022/08/24 07:40:01;;;;;;;39.90;37.70;;;23.80;60.60;;;;;;5002193;28;20452;-69
2022/08/24 07:42:29;;;;;;;46.43;44.07;;;24.00;60.40;;;;;;4999470;28;20563;-69
2022/08/24 07:44:57;;;;;;;56.97;53.87;;;24.00;60.40;;;;;;5011336;28;20507;-67
2022/08/24 07:47:24;;;;;;;42.67;40.37;;;24.00;60.30;;;;;;5002729;28;20474;-71
2022/08/24 07:49:51;;;;;;;46.17;43.23;;;24.20;59.80;;;;;;5008250;28;20583;-71
2022/08/24 07:52:18;;;;;;;39.23;37.43;;;24.20;60.00;;;;;;5006699;28;20568;-70
2022/08/24 07:54:45;;;;;;;41.37;39.00;;;24.30;60.20;;;;;;5011786;28;20512;-70
2022/08/24 07:57:12;;;;;;;44.60;42.13;;;24.40;60.10;;;;;;5010688;28;20470;-70
2022/08/24 07:59:40;;;;;;;51.37;48.87;;;24.30;60.30;;;;;;5009533;28;20563;-70
2022/08/24 08:02:09;;;;;;;41.33;39.23;;;24.30;60.50;;;;;;5002027;28;20488;-70
2022/08/24 08:04:37;;;;;;;43.83;41.70;;;24.10;60.80;;;;;;5007945;28;20460;-70
2022/08/24 08:07:06;;;;;;;40.20;38.30;;;24.30;60.00;;;;;;5009321;28;20546;-70
2022/08/24 08:09:33;;;;;;;37.73;35.50;;;24.40;59.20;;;;;;5006862;28;20966;-70
2022/08/24 08:12:05;;;;;;;50.90;48.10;;;24.40;58.30;;;;;;5009167;28;20491;-72
2022/08/24 08:14:32;;;;;;;37.67;35.63;;;24.50;57.70;;;;;;5007873;28;20918;-70
2022/08/24 08:17:00;;;;;;;38.50;36.60;;;24.50;57.20;;;;;;5008806;28;20492;-70
2022/08/24 08:19:27;;;;;;;43.80;41.50;;;24.50;56.10;;;;;;5009866;28;20457;-70
2022/08/24 08:24:41;;;;;;;35.30;33.30;;;24.70;54.80;;;;;;5007473;28;20537;-70
2022/08/24 08:27:08;;;;;;;43.97;41.87;;;24.80;53.80;;;;;;5008278;28;20467;-70
2022/08/24 08:29:38;;;;;;;33.87;32.27;;;24.90;53.40;;;;;;5004705;28;20469;-70
2022/08/24 08:32:07;;;;;;;43.63;41.53;;;25.10;52.70;;;;;;5000434;28;20520;-71
2022/08/24 08:34:34;;;;;;;32.93;31.23;;;25.30;52.40;;;;;;5007892;28;20540;-70
2022/08/24 08:37:01;;;;;;;42.90;40.83;;;25.40;52.60;;;;;;5008693;28;20868;-71
2022/08/24 08:39:29;;;;;;;38.63;36.70;;;25.60;52.70;;;;;;5010904;28;20826;-70
2022/08/24 08:42:35;;;;;;;34.17;32.17;;;25.70;51.80;;;;;;5003852;28;20932;-70
2022/08/24 08:45:17;;;;;;;33.67;31.87;;;25.70;49.40;;;;;;4978147;28;20459;-73
2022/08/24 08:48:26;;;;;;;41.33;37.93;;;25.70;48.20;;;;;;5003469;28;20556;-73
2022/08/24 08:51:24;;;;;;;47.87;45.67;;;25.90;48.50;;;;;;4985792;28;20504;-75
2022/08/24 08:54:14;;;;;;;31.80;30.17;;;26.00;47.30;;;;;;5006471;28;20457;-73
2022/08/24 08:56:50;;;;;;;34.43;32.43;;;26.10;49.10;;;;;;5003947;28;20541;-73
2022/08/24 08:59:30;;;;;;;33.63;32.03;;;26.30;48.80;;;;;;5006800;28;20924;-73
2022/08/24 09:02:09;;;;;;;34.20;32.60;;;26.30;49.70;;;;;;5005189;28;21247;-72
2022/08/24 09:05:09;;;;;;;41.73;39.43;;;26.30;49.30;;;;;;5016481;28;20454;-72
2022/08/24 09:07:50;;;;;;;45.90;43.50;;;26.40;48.40;;;;;;4996344;28;20460;-74
2022/08/24 09:10:49;;;;;;;43.43;41.17;;;26.20;49.00;;;;;;5011155;28;20567;-72
2022/08/24 09:13:27;;;;;;;43.70;41.43;;;26.40;48.00;;;;;;5006753;28;20465;-70
2022/08/24 09:16:11;;;;;;;44.20;41.93;;;26.30;48.20;;;;;;5008364;28;20911;-71
2022/08/24 09:18:56;;;;;;;51.97;49.47;;;26.40;48.40;;;;;;5006532;28;20939;-70
2022/08/24 09:21:44;;;;;;;43.43;41.03;;;26.50;48.20;;;;;;5002220;28;21062;-71
2022/08/24 09:24:50;;;;;;;45.90;43.53;;;26.60;48.00;;;;;;5006379;28;20556;-71
2022/08/24 09:27:26;;;;;;;33.43;31.80;;;26.50;48.20;;;;;;4937909;28;20819;-70
2022/08/24 09:30:05;;;;;;;57.13;54.67;;;26.60;47.90;;;;;;4993771;28;20468;-70
2022/08/24 09:32:48;;;;;;;39.20;37.10;;;26.50;48.30;;;;;;5002957;28;20556;-72
2022/08/24 09:35:22;;;;;;;33.33;31.17;;;26.40;48.70;;;;;;5010500;28;20561;-66
2022/08/24 09:37:59;;;;;;;36.80;34.83;;;26.50;48.80;;;;;;5004287;28;20891;-67
2022/08/24 09:40:39;;;;;;;32.37;30.67;;;26.50;48.60;;;;;;5004956;28;20459;-67
2022/08/24 09:43:41;;;;;;;48.60;46.20;;;26.70;47.40;;;;;;5002492;28;20547;-67
2022/08/24 09:46:36;;;;;;;50.90;48.60;;;26.80;46.70;;;;;;5005093;28;20480;-67
2022/08/24 09:49:40;;;;;;;60.20;57.70;;;27.10;47.00;;;;;;5002383;28;20561;-67
2022/08/24 09:52:50;;;;;;;33.83;32.23;;;27.10;46.60;;;;;;4999737;28;20555;-66
2022/08/24 09:55:55;;;;;;;33.63;32.03;;;27.10;46.70;;;;;;5001714;28;20523;-67
2022/08/24 09:58:36;;;;;;;41.60;39.60;;;27.20;45.60;;;;;;5007998;28;21274;-67
2022/08/24 10:01:10;;;;;;;43.70;41.60;;;27.40;45.20;;;;;;5005568;28;20600;-67
2022/08/24 10:03:52;;;;;;;50.17;47.70;;;27.50;45.10;;;;;;5001747;28;20462;-67
2022/08/24 10:06:28;;;;;;;37.90;36.00;;;27.40;45.60;;;;;;5003362;28;20459;-67
2022/08/24 10:09:18;;;;;;;36.70;34.90;;;27.40;45.10;;;;;;4995573;28;20493;-66
2022/08/24 10:11:54;;;;;;;35.63;33.50;;;27.30;45.30;;;;;;5005936;28;21019;-67
2022/08/24 10:14:41;;;;;;;38.67;36.67;;;27.40;44.20;;;;;;5003784;28;20548;-67
2022/08/24 10:17:17;;;;;;;38.07;36.37;;;27.70;44.20;;;;;;4998667;28;20486;-67
2022/08/24 10:20:07;;;;;;;38.37;36.57;;;27.80;44.20;;;;;;5000844;28;20452;-67
2022/08/24 10:23:09;;;;;;;33.47;31.87;;;27.60;44.60;;;;;;5001537;28;20568;-67
2022/08/24 10:25:45;;;;;;;35.00;33.30;;;27.70;44.40;;;;;;5009034;28;20557;-67
2022/08/24 10:28:38;;;;;;;33.90;32.07;;;27.50;44.30;;;;;;5002814;28;20465;-67
2022/08/24 10:31:08;;;;;;;35.23;33.43;;;27.60;45.10;;;;;;5002596;28;20560;-68
2022/08/24 10:33:43;;;;;;;36.10;34.40;;;27.70;44.80;;;;;;5004771;28;20496;-68
2022/08/24 10:36:30;;;;;;;37.23;35.43;;;27.80;45.40;;;;;;5005467;28;20572;-68
2022/08/24 10:45:51;;;;;;;35.60;33.80;;;28.00;45.00;;;;;;5004436;28;20519;-68
2022/08/24 10:48:37;;;;;;;50.13;47.80;;;28.00;45.80;;;;;;4997338;28;20465;-68
2022/08/24 10:51:22;;;;;;;51.47;48.97;;;28.20;45.50;;;;;;4995431;28;20912;-68
2022/08/24 10:53:54;;;;;;;34.40;32.70;;;28.30;44.90;;;;;;5001331;28;20493;-68
2022/08/24 10:56:36;;;;;;;34.70;33.00;;;28.40;45.10;;;;;;5002032;28;20501;-68
2022/08/24 10:59:17;;;;;;;36.60;34.80;;;28.30;45.30;;;;;;5003134;28;20457;-68
2022/08/24 11:02:02;;;;;;;50.80;48.37;;;28.50;45.50;;;;;;5002024;28;20532;-69
2022/08/24 11:04:32;;;;;;;33.87;32.27;;;28.70;45.60;;;;;;5016617;28;20463;-69
2022/08/24 11:07:18;;;;;;;37.37;35.67;;;28.70;44.80;;;;;;4999715;28;20457;-68
2022/08/24 11:09:50;;;;;;;33.30;31.80;;;28.90;44.30;;;;;;5005068;28;20963;-69
2022/08/24 11:12:24;;;;;;;33.90;32.10;;;29.00;44.20;;;;;;5005462;28;20543;-69
2022/08/24 11:14:52;;;;;;;41.33;39.33;;;29.20;43.50;;;;;;5008601;28;20464;-68
2022/08/24 11:17:22;;;;;;;52.10;49.30;;;29.20;43.70;;;;;;5005325;28;20922;-69
2022/08/24 11:19:50;;;;;;;44.60;42.43;;;29.20;43.90;;;;;;5010700;28;20460;-69
2022/08/24 11:22:39;;;;;;;37.40;35.70;;;29.10;44.30;;;;;;5008837;28;20546;-69
2022/08/24 11:25:16;;;;;;;35.40;33.70;;;29.30;44.10;;;;;;5006848;28;20563;-69
2022/08/24 11:27:46;;;;;;;39.43;37.63;;;29.50;42.80;;;;;;5006855;28;20560;-69
2022/08/24 11:30:23;;;;;;;38.50;36.70;;;29.40;43.10;;;;;;5008674;28;21110;-68
2022/08/24 11:32:56;;;;;;;43.47;41.47;;;29.50;42.90;;;;;;5003798;28;20974;-69
2022/08/24 11:35:26;;;;;;;38.00;36.23;;;29.50;42.80;;;;;;5012132;28;20461;-68
2022/08/24 11:37:58;;;;;;;45.23;42.90;;;29.40;42.80;;;;;;5010804;28;21097;-68
2022/08/24 11:40:28;;;;;;;34.30;32.70;;;29.30;43.40;;;;;;5009760;28;20954;-68
2022/08/24 11:43:11;;;;;;;53.03;50.53;;;29.40;44.00;;;;;;5009756;28;20540;-68
2022/08/24 11:45:44;;;;;;;46.20;44.10;;;29.60;42.50;;;;;;5007978;28;20463;-68
2022/08/24 11:48:25;;;;;;;46.73;44.53;;;29.60;42.60;;;;;;5005706;28;20461;-68
2022/08/24 11:50:59;;;;;;;34.90;33.37;;;29.70;42.40;;;;;;5009133;28;20496;-68
2022/08/24 11:53:38;;;;;;;53.10;50.50;;;29.90;41.30;;;;;;5010448;28;20523;-68
2022/08/24 11:56:14;;;;;;;38.63;36.73;;;29.80;41.20;;;;;;5009442;28;20457;-68
2022/08/24 11:58:50;;;;;;;51.67;49.50;;;29.90;40.80;;;;;;5006306;28;20453;-68
2022/08/24 12:01:23;;;;;;;45.17;43.03;;;30.00;41.20;;;;;;5007269;28;20492;-69
2022/08/24 12:04:05;;;;;;;49.47;47.10;;;30.10;40.80;;;;;;5008501;28;20484;-69
2022/08/24 12:06:44;;;;;;;44.50;42.50;;;30.10;40.50;;;;;;5007285;28;20458;-69
2022/08/24 12:09:23;;;;;;;40.57;38.67;;;30.20;40.30;;;;;;5002835;28;20878;-69
2022/08/24 12:11:58;;;;;;;37.10;34.90;;;30.30;40.10;;;;;;5005589;28;20589;-69
2022/08/24 12:14:33;;;;;;;50.53;48.13;;;30.40;39.90;;;;;;5011113;28;20534;-69
2022/08/24 12:17:04;;;;;;;48.53;46.23;;;30.40;39.90;;;;;;5008850;28;20549;-69
2022/08/24 12:19:36;;;;;;;33.63;32.13;;;30.40;39.90;;;;;;5010440;28;20583;-69
2022/08/24 12:22:06;;;;;;;68.37;65.47;;;30.60;39.60;;;;;;5003948;28;20595;-69
2022/08/24 12:24:39;;;;;;;37.30;35.40;;;30.80;39.50;;;;;;5010939;28;20835;-69
2022/08/24 12:27:10;;;;;;;47.30;45.17;;;30.70;39.50;;;;;;5009407;28;20898;-69
2022/08/24 12:29:42;;;;;;;50.93;48.13;;;30.70;39.30;;;;;;5005379;28;20602;-69
2022/08/24 12:32:14;;;;;;;37.13;35.43;;;30.70;39.50;;;;;;5003358;28;20481;-69
2022/08/24 12:34:51;;;;;;;37.93;36.27;;;30.70;39.40;;;;;;5008651;28;20558;-70
2022/08/24 12:37:25;;;;;;;51.73;49.37;;;30.40;39.80;;;;;;5009293;28;20825;-72
2022/08/24 12:39:59;;;;;;;47.03;44.80;;;30.50;39.50;;;;;;5007491;28;20548;-71
2022/08/24 12:42:34;;;;;;;42.30;40.10;;;30.70;39.40;;;;;;5006406;28;21195;-72
2022/08/24 12:45:05;;;;;;;49.33;46.97;;;30.90;39.10;;;;;;5004875;28;20460;-73
2022/08/24 12:47:37;;;;;;;45.10;43.03;;;31.00;38.90;;;;;;5005912;28;20461;-71
2022/08/24 12:50:13;;;;;;;54.70;52.00;;;31.00;39.00;;;;;;5004020;28;21222;-71
2022/08/24 12:53:06;;;;;;;39.73;37.70;;;30.90;38.90;;;;;;5007814;28;20667;-71
2022/08/24 12:56:18;;;;;;;52.93;50.33;;;31.00;38.80;;;;;;5001023;28;20534;-72
2022/08/24 12:58:57;;;;;;;43.20;41.30;;;31.10;37.90;;;;;;4989458;28;20470;-71
2022/08/24 13:01:27;;;;;;;50.43;48.17;;;31.20;37.60;;;;;;5007182;28;20503;-71
2022/08/24 13:04:05;;;;;;;36.37;34.57;;;31.30;37.10;;;;;;5008556;28;20495;-74
2022/08/24 13:06:41;;;;;;;53.90;51.43;;;31.00;37.90;;;;;;5005200;28;20557;-71
2022/08/24 13:09:14;;;;;;;52.57;50.10;;;30.70;38.40;;;;;;5008096;28;20536;-71